Time;durP1;ratioP1;P1;durP2;ratioP2;P2;SDS_P1;SDS_P2;PMS_P1;PMS_P2;Temp;Humidity;BMP_temperature;BMP_pressure;BME280_temperature;BME280_humidity;BME280_pressure;Samples;Min_cycle;Max_cycle;Signal;HPM_P1;HPM_P2
2022/01/25 00:08:51;;;;;;;44.95;16.52;;;5.00;99.90;;;;;;5091857;28;20047;-61
2022/01/25 00:25:45;;;;;;;46.03;17.17;;;4.90;99.90;;;;;;5094232;28;20394;-62
2022/01/25 00:28:16;;;;;;;44.97;15.90;;;4.90;99.90;;;;;;5093833;28;20071;-62
2022/01/25 00:30:57;;;;;;;48.00;18.38;;;4.90;99.90;;;;;;5094083;28;20479;-62
2022/01/25 00:33:22;;;;;;;41.20;16.63;;;5.00;99.90;;;;;;5095189;28;20032;-61
2022/01/25 00:35:48;;;;;;;49.85;19.30;;;5.00;99.90;;;;;;5094681;28;20030;-62
2022/01/25 00:38:14;;;;;;;41.03;16.25;;;5.00;99.90;;;;;;5093849;28;20016;-61
2022/01/25 00:40:39;;;;;;;47.30;16.85;;;5.00;99.90;;;;;;5094552;28;20080;-62
2022/01/25 00:43:05;;;;;;;45.60;18.48;;;5.00;99.90;;;;;;5094135;28;20028;-62
2022/01/25 00:45:30;;;;;;;51.90;17.58;;;5.00;99.90;;;;;;5093655;28;20028;-62
2022/01/25 00:47:56;;;;;;;46.85;16.83;;;4.90;99.90;;;;;;5094275;28;20024;-62
2022/01/25 00:50:23;;;;;;;47.78;17.40;;;4.90;99.90;;;;;;5094626;28;20024;-62
2022/01/25 00:55:15;;;;;;;46.80;18.23;;;5.00;99.90;;;;;;5094084;28;20121;-61
2022/01/25 00:57:41;;;;;;;49.13;17.10;;;4.90;99.90;;;;;;5094541;28;20056;-62
2022/01/25 01:00:11;;;;;;;46.22;18.10;;;4.90;99.90;;;;;;5092932;28;20071;-62
2022/01/25 01:02:36;;;;;;;48.25;16.17;;;4.90;99.90;;;;;;5093935;28;20081;-61
2022/01/25 01:05:03;;;;;;;41.67;15.68;;;4.90;99.90;;;;;;5094320;28;20036;-61
2022/01/25 01:07:28;;;;;;;52.70;17.38;;;4.90;99.90;;;;;;5093644;28;20024;-61
2022/01/25 01:09:55;;;;;;;48.13;15.93;;;4.90;99.90;;;;;;5094206;28;20024;-62
2022/01/25 01:44:05;;;;;;;51.75;17.77;;;4.90;99.90;;;;;;5093118;28;20487;-61
2022/01/25 01:46:38;;;;;;;49.28;17.90;;;4.90;99.90;;;;;;5093376;28;20060;-62
2022/01/25 01:49:06;;;;;;;45.35;15.95;;;4.90;99.90;;;;;;5092490;28;20024;-62
2022/01/25 01:51:37;;;;;;;51.45;18.30;;;4.90;99.90;;;;;;5093205;28;20552;-62
2022/01/25 01:54:07;;;;;;;41.22;15.63;;;4.90;99.90;;;;;;5093154;28;20032;-62
2022/01/25 01:56:33;;;;;;;47.20;16.70;;;4.90;99.90;;;;;;5092238;28;20028;-62
2022/01/25 01:59:03;;;;;;;42.63;17.70;;;4.90;99.90;;;;;;5092975;28;20028;-61
2022/01/25 02:01:30;;;;;;;44.60;16.83;;;4.90;99.90;;;;;;5092632;28;20529;-61
2022/01/25 02:03:58;;;;;;;47.33;18.13;;;4.80;99.90;;;;;;5092151;28;20497;-62
2022/01/25 02:06:24;;;;;;;52.20;16.83;;;4.80;99.90;;;;;;5092992;28;20360;-61
2022/01/25 02:08:50;;;;;;;40.92;15.93;;;4.80;99.90;;;;;;5092252;28;20295;-62
2022/01/25 02:11:16;;;;;;;38.92;17.95;;;4.80;99.90;;;;;;5092687;28;20233;-63
2022/01/25 02:13:42;;;;;;;40.55;14.90;;;4.80;99.90;;;;;;5092773;28;20039;-62
2022/01/25 02:16:15;;;;;;;52.92;18.83;;;4.80;99.90;;;;;;5092013;28;20386;-61
2022/01/25 02:24:09;;;;;;;45.97;17.55;;;4.80;99.90;;;;;;5091781;28;20119;-61
2022/01/25 02:26:34;;;;;;;46.03;18.83;;;4.80;99.90;;;;;;5091917;28;20469;-61
2022/01/25 02:29:00;;;;;;;38.35;15.10;;;4.80;99.90;;;;;;5092487;28;20458;-61
2022/01/25 02:31:26;;;;;;;44.25;17.27;;;4.80;99.90;;;;;;5091852;28;20028;-62
2022/01/25 02:33:51;;;;;;;48.90;17.20;;;4.80;99.90;;;;;;5092195;28;20077;-61
2022/01/25 02:36:27;;;;;;;59.08;18.08;;;4.80;99.90;;;;;;5092410;28;20024;-61
2022/01/25 02:38:54;;;;;;;48.72;17.88;;;4.80;99.90;;;;;;5091855;28;20032;-61
2022/01/25 02:41:20;;;;;;;47.78;16.13;;;4.70;99.90;;;;;;5092241;28;20020;-63
2022/01/25 02:43:47;;;;;;;48.05;17.45;;;4.70;99.90;;;;;;5092494;28;20028;-62
2022/01/25 02:48:57;;;;;;;48.53;16.05;;;4.70;99.90;;;;;;5092738;28;20036;-61
2022/01/25 02:51:28;;;;;;;45.13;15.57;;;4.70;99.90;;;;;;5091039;28;20042;-61
2022/01/25 02:53:55;;;;;;;45.15;17.13;;;4.70;99.90;;;;;;5092261;28;20020;-61
2022/01/25 02:56:22;;;;;;;41.83;17.42;;;4.70;99.90;;;;;;5092042;28;20027;-61
2022/01/25 02:58:48;;;;;;;47.67;18.38;;;4.70;99.90;;;;;;5091302;28;20478;-62
2022/01/25 03:01:14;;;;;;;48.63;16.33;;;4.70;99.90;;;;;;5091520;28;20016;-62
2022/01/25 03:03:40;;;;;;;48.05;17.98;;;4.70;99.90;;;;;;5092377;28;20046;-61
2022/01/25 03:06:06;;;;;;;40.58;14.80;;;4.70;99.90;;;;;;5091497;28;20024;-61
2022/01/25 03:08:32;;;;;;;43.75;16.25;;;4.70;99.90;;;;;;5092558;28;20495;-62
2022/01/25 03:10:58;;;;;;;38.13;15.50;;;4.60;99.90;;;;;;5091914;28;20023;-61
2022/01/25 03:13:31;;;;;;;41.03;16.25;;;4.60;99.90;;;;;;5091735;28;20107;-62
2022/01/25 03:16:02;;;;;;;47.53;16.30;;;4.60;99.90;;;;;;5092045;28;20039;-61
2022/01/25 03:23:50;;;;;;;41.67;17.00;;;4.60;99.90;;;;;;5092068;28;20036;-61
2022/01/25 03:26:16;;;;;;;41.83;16.13;;;4.60;99.90;;;;;;5090560;28;20048;-62
2022/01/25 03:28:42;;;;;;;40.83;15.88;;;4.60;99.90;;;;;;5091574;28;20031;-62
2022/01/25 03:31:08;;;;;;;41.42;15.02;;;4.60;99.90;;;;;;5091131;28;20024;-63
2022/01/25 03:33:33;;;;;;;51.35;16.08;;;4.60;99.90;;;;;;5090808;28;20016;-61
2022/01/25 03:35:59;;;;;;;41.05;16.50;;;4.60;99.90;;;;;;5091544;28;20107;-61
2022/01/25 03:38:25;;;;;;;41.88;15.75;;;4.60;99.90;;;;;;5092056;28;20024;-61
2022/01/25 03:40:50;;;;;;;43.80;16.42;;;4.60;99.90;;;;;;5091008;28;20036;-61
2022/01/25 03:43:18;;;;;;;41.80;16.00;;;4.60;99.90;;;;;;5091709;28;20027;-61
2022/01/25 03:45:57;;;;;;;40.85;15.88;;;4.60;99.90;;;;;;5091414;28;20081;-63
2022/01/25 03:50:50;;;;;;;37.33;15.27;;;4.60;99.90;;;;;;5091962;28;19952;-61
2022/01/25 03:53:18;;;;;;;48.33;17.20;;;4.60;99.90;;;;;;5094322;28;20054;-61
2022/01/25 03:55:45;;;;;;;44.45;16.98;;;4.50;99.90;;;;;;5094907;28;20107;-61
2022/01/25 03:58:11;;;;;;;47.40;17.98;;;4.50;99.90;;;;;;5095721;28;20028;-62
2022/01/25 04:00:38;;;;;;;50.58;16.95;;;4.50;99.90;;;;;;5094997;28;20394;-61
2022/01/25 04:03:10;;;;;;;47.35;17.55;;;4.50;99.90;;;;;;5094580;28;20048;-61
2022/01/25 04:08:07;;;;;;;40.33;14.85;;;4.60;99.90;;;;;;5095356;28;20122;-62
2022/01/25 04:10:33;;;;;;;47.22;17.17;;;4.60;99.90;;;;;;5094534;28;20197;-61
2022/01/25 04:13:00;;;;;;;50.58;16.95;;;4.60;99.90;;;;;;5095205;28;20226;-61
2022/01/25 04:15:26;;;;;;;54.25;17.92;;;4.60;99.90;;;;;;5094434;28;20035;-61
2022/01/25 04:18:01;;;;;;;53.53;18.67;;;4.60;99.90;;;;;;5095446;28;20020;-62
2022/01/25 04:20:31;;;;;;;45.47;17.75;;;4.60;99.90;;;;;;5094758;28;20164;-61
2022/01/25 04:25:42;;;;;;;41.03;14.73;;;4.60;99.90;;;;;;5094621;28;20526;-60
2022/01/25 04:28:07;;;;;;;46.00;17.52;;;4.60;99.90;;;;;;5095474;28;20028;-61
2022/01/25 04:30:33;;;;;;;40.53;15.10;;;4.60;99.90;;;;;;5094065;28;20032;-61
2022/01/25 04:33:05;;;;;;;44.35;15.45;;;4.50;99.90;;;;;;5094585;28;20020;-61
2022/01/25 04:49:21;;;;;;;50.75;16.27;;;4.60;99.90;;;;;;5094613;28;20043;-61
2022/01/25 04:54:24;;;;;;;53.30;18.02;;;4.60;99.90;;;;;;5094477;28;20028;-61
2022/01/25 04:59:27;;;;;;;47.75;15.38;;;4.60;99.90;;;;;;5093501;28;20046;-61
2022/01/25 05:01:59;;;;;;;43.78;15.48;;;4.60;99.90;;;;;;5094098;28;20547;-61
2022/01/25 05:04:30;;;;;;;42.55;16.27;;;4.60;99.90;;;;;;5094245;28;20042;-62
2022/01/25 05:07:04;;;;;;;55.67;17.15;;;4.60;99.90;;;;;;5094046;28;20109;-62
2022/01/25 05:09:32;;;;;;;44.88;15.90;;;4.70;99.90;;;;;;5094029;28;20038;-62
2022/01/25 05:11:58;;;;;;;46.13;16.38;;;4.70;99.90;;;;;;5093488;28;20077;-61
2022/01/25 05:14:31;;;;;;;42.80;15.82;;;4.70;99.90;;;;;;5093823;28;20024;-62
2022/01/25 05:17:03;;;;;;;45.85;16.35;;;4.60;99.90;;;;;;5094309;28;20070;-60
2022/01/25 05:24:42;;;;;;;36.58;13.10;;;4.50;99.90;;;;;;5094311;28;19974;-61
2022/01/25 05:27:09;;;;;;;47.13;14.52;;;4.60;99.90;;;;;;5092042;28;20498;-61
2022/01/25 05:29:35;;;;;;;45.63;15.88;;;4.60;99.90;;;;;;5093743;28;20024;-61
2022/01/25 05:32:01;;;;;;;43.53;15.57;;;4.60;99.90;;;;;;5093276;28;20082;-61
2022/01/25 05:34:27;;;;;;;43.28;16.40;;;4.60;99.90;;;;;;5092829;28;20036;-61
2022/01/25 05:36:53;;;;;;;44.55;16.08;;;4.60;99.90;;;;;;5093286;28;20024;-60
2022/01/25 05:39:24;;;;;;;41.15;14.35;;;4.60;99.90;;;;;;5093376;28;20036;-61
2022/01/25 05:42:00;;;;;;;51.40;17.70;;;4.50;99.90;;;;;;5092532;28;20087;-61
2022/01/25 05:47:14;;;;;;;43.20;16.30;;;4.50;99.90;;;;;;5093125;28;20043;-61
2022/01/25 05:49:40;;;;;;;50.40;16.30;;;4.50;99.90;;;;;;5093279;28;20040;-61
2022/01/25 05:52:08;;;;;;;37.75;15.20;;;4.60;99.90;;;;;;5093443;28;20023;-62
2022/01/25 05:54:34;;;;;;;42.15;15.57;;;4.60;99.90;;;;;;5092522;28;20057;-62
2022/01/25 05:57:00;;;;;;;36.22;13.40;;;4.50;99.90;;;;;;5093038;28;20035;-62
2022/01/25 05:59:26;;;;;;;43.67;14.73;;;4.50;99.90;;;;;;5093013;28;20394;-63
2022/01/25 06:01:51;;;;;;;49.65;17.98;;;4.60;99.90;;;;;;5092039;28;20085;-61
2022/01/25 06:04:17;;;;;;;41.95;14.68;;;4.60;99.90;;;;;;5093028;28;20463;-61
2022/01/25 06:06:43;;;;;;;46.42;16.63;;;4.70;99.90;;;;;;5092704;28;20131;-61
2022/01/25 06:09:08;;;;;;;43.40;15.45;;;4.70;99.90;;;;;;5092185;28;20009;-61
2022/01/25 06:11:34;;;;;;;38.78;16.15;;;4.70;99.90;;;;;;5092985;28;20032;-61
2022/01/25 06:14:01;;;;;;;52.05;18.10;;;4.70;99.90;;;;;;5092066;28;20536;-60
2022/01/25 06:16:30;;;;;;;55.47;15.95;;;4.70;99.90;;;;;;5091895;28;20494;-61
2022/01/25 06:18:56;;;;;;;;;;;4.70;99.90;;;;;;5093147;28;20073;-62
2022/01/25 06:21:22;;;;;;;37.45;15.18;;;4.70;99.90;;;;;;5092102;28;19931;-63
2022/01/25 06:23:48;;;;;;;46.72;17.33;;;4.70;99.90;;;;;;5091849;28;20020;-62
2022/01/25 06:26:13;;;;;;;39.28;16.38;;;4.70;99.90;;;;;;5092227;28;20051;-61
2022/01/25 06:28:39;;;;;;;48.13;16.02;;;4.70;99.90;;;;;;5092617;28;20020;-62
2022/01/25 06:31:04;;;;;;;46.95;16.80;;;4.70;99.90;;;;;;5092035;28;20028;-61
2022/01/25 06:33:30;;;;;;;35.47;14.60;;;4.70;99.90;;;;;;5077956;28;20020;-62
2022/01/25 06:35:56;;;;;;;43.63;15.48;;;4.70;99.90;;;;;;5071600;28;20024;-61
2022/01/25 06:38:22;;;;;;;47.70;17.70;;;4.80;99.90;;;;;;5072516;28;20077;-62
2022/01/25 06:40:48;;;;;;;43.00;16.45;;;4.80;99.90;;;;;;5072381;28;20403;-62
2022/01/25 06:43:13;;;;;;;48.83;16.45;;;4.70;99.90;;;;;;5083733;28;20016;-61
2022/01/25 06:45:39;;;;;;;47.53;16.85;;;4.80;99.90;;;;;;5091401;28;20028;-61
2022/01/25 06:48:06;;;;;;;47.38;16.65;;;4.80;99.90;;;;;;5092561;28;20024;-61
2022/01/25 06:50:32;;;;;;;46.47;16.17;;;4.80;99.90;;;;;;5091581;28;20028;-63
2022/01/25 06:52:57;;;;;;;41.80;15.93;;;4.80;99.90;;;;;;5091301;28;20081;-62
2022/01/25 06:55:23;;;;;;;40.03;13.93;;;4.70;99.90;;;;;;5085173;28;20020;-62
2022/01/25 06:57:49;;;;;;;46.05;15.13;;;4.70;99.90;;;;;;5071298;28;20179;-61
2022/01/25 07:00:20;;;;;;;45.45;16.95;;;4.70;99.90;;;;;;5084913;28;20039;-63
2022/01/25 07:02:46;;;;;;;44.83;17.65;;;4.70;99.90;;;;;;5091906;28;20020;-62
2022/01/25 07:05:12;;;;;;;50.58;18.13;;;4.60;99.90;;;;;;5090977;28;20027;-62
2022/01/25 07:07:39;;;;;;;50.42;18.20;;;4.70;99.90;;;;;;5091422;28;20069;-61
2022/01/25 07:10:06;;;;;;;43.13;15.60;;;4.70;99.90;;;;;;5091489;28;20028;-61
2022/01/25 07:12:33;;;;;;;39.83;15.93;;;4.60;99.90;;;;;;5090324;28;20028;-62
2022/01/25 07:14:59;;;;;;;52.38;17.38;;;4.60;99.90;;;;;;5091695;28;20020;-62
2022/01/25 07:17:24;;;;;;;54.65;14.65;;;4.60;99.90;;;;;;5091532;28;20536;-61
2022/01/25 07:19:50;;;;;;;47.67;16.88;;;4.60;99.90;;;;;;5090230;28;20028;-61
2022/01/25 07:22:16;;;;;;;45.88;14.75;;;4.60;99.90;;;;;;5074626;28;20094;-62
2022/01/25 07:24:42;;;;;;;44.08;15.20;;;4.50;99.90;;;;;;5071552;28;20024;-61
2022/01/25 07:27:08;;;;;;;35.20;14.75;;;4.60;99.90;;;;;;5071580;28;20052;-61
2022/01/25 07:29:34;;;;;;;48.75;15.85;;;4.60;99.90;;;;;;5075236;28;20027;-61
2022/01/25 07:32:00;;;;;;;43.92;17.33;;;4.60;99.90;;;;;;5088597;28;20032;-60
2022/01/25 07:34:27;;;;;;;47.45;16.83;;;4.60;99.90;;;;;;5094247;28;20451;-61
2022/01/25 07:36:52;;;;;;;54.38;16.67;;;4.60;99.90;;;;;;5094900;28;20047;-60
2022/01/25 07:39:18;;;;;;;42.90;14.15;;;4.50;99.90;;;;;;5094404;28;20479;-61
2022/01/25 07:41:45;;;;;;;51.65;18.08;;;4.50;99.90;;;;;;5093518;28;20399;-62
2022/01/25 07:44:11;;;;;;;46.83;16.55;;;4.50;99.90;;;;;;5094585;28;20028;-61
2022/01/25 07:46:37;;;;;;;46.17;16.50;;;4.60;99.90;;;;;;5094546;28;20012;-61
2022/01/25 07:49:03;;;;;;;45.90;15.13;;;4.60;99.90;;;;;;5095296;28;20394;-61
2022/01/25 07:51:30;;;;;;;39.65;15.35;;;4.60;99.90;;;;;;5094717;28;20020;-61
2022/01/25 07:53:57;;;;;;;46.65;16.83;;;4.60;99.90;;;;;;5094340;28;20028;-61
2022/01/25 07:56:23;;;;;;;47.22;15.07;;;4.60;99.90;;;;;;5094935;28;20459;-60
2022/01/25 07:58:48;;;;;;;39.35;14.85;;;4.60;99.90;;;;;;5095212;28;20035;-60
2022/01/25 08:01:15;;;;;;;38.00;14.95;;;4.50;99.90;;;;;;5094180;28;20028;-61
2022/01/25 08:03:42;;;;;;;45.70;15.80;;;4.60;99.90;;;;;;5094616;28;20103;-61
2022/01/25 08:06:09;;;;;;;47.58;16.73;;;4.60;99.90;;;;;;5095166;28;20039;-61
2022/01/25 08:08:35;;;;;;;46.63;15.18;;;4.60;99.90;;;;;;5093929;28;20505;-61
2022/01/25 08:11:01;;;;;;;50.85;15.88;;;4.60;99.90;;;;;;5094583;28;20012;-61
2022/01/25 08:13:27;;;;;;;45.17;15.27;;;4.60;99.90;;;;;;5094579;28;20583;-61
2022/01/25 08:15:52;;;;;;;49.85;15.55;;;4.60;99.90;;;;;;5093201;28;20036;-62
2022/01/25 08:18:18;;;;;;;42.70;14.63;;;4.60;99.90;;;;;;5080739;28;20042;-62
2022/01/25 08:20:44;;;;;;;41.00;15.93;;;4.60;99.90;;;;;;5074075;28;20028;-60
2022/01/25 08:23:09;;;;;;;42.17;15.93;;;4.60;99.90;;;;;;5093649;28;20062;-61
2022/01/25 08:25:35;;;;;;;52.78;20.58;;;4.60;99.90;;;;;;5094128;28;20058;-61
2022/01/25 08:28:00;;;;;;;45.22;14.63;;;4.70;99.90;;;;;;5093428;28;20028;-62
2022/01/25 08:30:26;;;;;;;46.58;16.15;;;4.70;99.90;;;;;;5092884;28;20016;-62
2022/01/25 08:32:52;;;;;;;40.60;16.38;;;4.70;99.90;;;;;;5093364;28;20028;-61
2022/01/25 08:35:19;;;;;;;38.88;15.63;;;4.80;99.90;;;;;;5093938;28;20428;-61
2022/01/25 08:37:45;;;;;;;41.63;15.68;;;4.70;99.90;;;;;;5093050;28;20028;-61
2022/01/25 08:40:11;;;;;;;44.47;14.25;;;4.80;99.90;;;;;;5094306;28;20092;-62
2022/01/25 08:42:37;;;;;;;48.50;17.00;;;4.80;99.90;;;;;;5093128;28;20471;-61
2022/01/25 08:45:06;;;;;;;49.85;17.02;;;4.80;99.90;;;;;;5093344;28;20024;-62
2022/01/25 08:47:32;;;;;;;45.67;17.55;;;4.80;99.90;;;;;;5093250;28;20462;-60
2022/01/25 08:49:58;;;;;;;45.95;17.33;;;4.90;99.90;;;;;;5092977;28;20029;-62
2022/01/25 08:52:24;;;;;;;48.55;15.35;;;4.80;99.90;;;;;;5093360;28;20058;-60
2022/01/25 08:54:50;;;;;;;46.05;17.45;;;4.90;99.90;;;;;;5094092;28;20024;-61
2022/01/25 08:57:16;;;;;;;43.28;15.57;;;4.90;99.90;;;;;;5093064;28;20024;-62
2022/01/25 08:59:41;;;;;;;51.80;17.10;;;4.90;99.90;;;;;;5093711;28;20036;-61
2022/01/25 09:02:07;;;;;;;45.38;17.10;;;4.90;99.90;;;;;;5093712;28;20441;-62
2022/01/25 09:04:32;;;;;;;47.75;17.25;;;4.90;99.90;;;;;;5092909;28;20059;-62
2022/01/25 09:06:58;;;;;;;52.75;16.55;;;4.90;99.90;;;;;;5093599;28;20020;-61
2022/01/25 09:09:24;;;;;;;43.17;16.75;;;4.90;99.90;;;;;;5093322;28;20020;-61
2022/01/25 09:11:49;;;;;;;41.75;14.52;;;4.90;99.90;;;;;;5093150;28;20107;-61
2022/01/25 09:14:15;;;;;;;43.83;14.68;;;4.90;99.90;;;;;;5093728;28;20446;-61
2022/01/25 09:16:41;;;;;;;50.03;16.85;;;4.90;99.90;;;;;;5093409;28;20028;-62
2022/01/25 09:19:07;;;;;;;44.38;15.95;;;4.90;99.90;;;;;;5072486;28;20031;-62
2022/01/25 09:21:33;;;;;;;45.47;15.88;;;4.90;99.90;;;;;;5082975;28;20475;-62
2022/01/25 09:23:59;;;;;;;46.20;16.02;;;4.90;99.90;;;;;;5092951;28;20020;-62
2022/01/25 09:26:24;;;;;;;37.67;15.55;;;4.90;99.90;;;;;;5092228;28;20051;-62
2022/01/25 09:28:53;;;;;;;41.05;15.02;;;4.90;99.90;;;;;;5093570;28;20024;-61
2022/01/25 09:31:19;;;;;;;40.75;15.40;;;4.90;99.90;;;;;;5093067;28;20059;-62
2022/01/25 09:33:45;;;;;;;51.30;18.25;;;4.90;99.90;;;;;;5092041;28;20475;-61
2022/01/25 09:36:11;;;;;;;47.83;17.30;;;5.00;99.90;;;;;;5093298;28;20032;-61
2022/01/25 09:38:36;;;;;;;47.55;16.08;;;5.00;99.90;;;;;;5093077;28;20383;-61
2022/01/25 09:41:02;;;;;;;45.55;16.17;;;5.00;99.90;;;;;;5092401;28;20115;-61
2022/01/25 09:43:29;;;;;;;38.65;15.07;;;4.90;99.90;;;;;;5092729;28;20097;-61
2022/01/25 09:45:55;;;;;;;42.10;14.63;;;4.90;99.90;;;;;;5092137;28;20020;-61
2022/01/25 09:48:21;;;;;;;44.67;14.07;;;4.90;99.90;;;;;;5092818;28;20107;-61
2022/01/25 09:50:47;;;;;;;40.25;13.48;;;4.90;99.90;;;;;;5092108;28;20043;-61
2022/01/25 09:53:13;;;;;;;49.90;17.25;;;4.90;99.90;;;;;;5091456;28;20386;-61
2022/01/25 09:55:41;;;;;;;37.22;13.25;;;4.90;99.90;;;;;;5092285;28;20024;-61
2022/01/25 09:58:09;;;;;;;41.88;15.25;;;4.90;99.90;;;;;;5092115;28;20494;-61
2022/01/25 10:00:36;;;;;;;48.95;16.73;;;4.90;99.90;;;;;;5091693;28;20946;-62
2022/01/25 10:06:19;;;;;;;42.42;15.18;;;4.90;99.90;;;;;;4990469;28;20036;-60
2022/01/25 10:08:45;;;;;;;41.67;15.57;;;4.90;99.90;;;;;;5080115;28;20047;-61
2022/01/25 10:11:13;;;;;;;46.67;16.40;;;4.90;99.90;;;;;;5092399;28;20032;-61
2022/01/25 10:13:42;;;;;;;42.73;16.57;;;4.90;99.90;;;;;;5092252;28;20028;-62
2022/01/25 10:16:11;;;;;;;49.47;17.40;;;4.90;99.90;;;;;;5091497;28;20024;-61
2022/01/25 10:18:54;;;;;;;40.63;14.57;;;4.90;99.90;;;;;;5092251;28;20480;-61
2022/01/25 10:21:30;;;;;;;45.75;15.13;;;5.00;99.90;;;;;;5091262;28;20386;-61
2022/01/25 10:24:15;;;;;;;49.15;14.80;;;5.00;99.90;;;;;;5092060;28;20024;-61
2022/01/25 10:26:52;;;;;;;42.90;15.35;;;5.00;99.90;;;;;;5091665;28;20425;-61
2022/01/25 10:29:24;;;;;;;45.63;15.43;;;5.00;99.90;;;;;;5091481;28;20490;-61
2022/01/25 10:31:59;;;;;;;45.65;14.43;;;5.00;99.90;;;;;;5091706;28;20111;-61
2022/01/25 10:34:34;;;;;;;52.25;16.60;;;5.00;99.90;;;;;;5092105;28;20056;-61
2022/01/25 10:37:05;;;;;;;49.97;14.95;;;5.00;99.90;;;;;;5091554;28;20069;-61
2022/01/25 10:39:33;;;;;;;50.40;14.25;;;5.00;99.90;;;;;;5092059;28;20035;-61
2022/01/25 10:42:08;;;;;;;54.50;16.90;;;4.90;99.90;;;;;;5092061;28;20561;-61
2022/01/25 10:44:50;;;;;;;45.25;14.27;;;4.90;99.90;;;;;;5091809;28;20028;-61
2022/01/25 10:47:17;;;;;;;41.72;14.48;;;5.00;99.90;;;;;;5091740;28;20020;-61
2022/01/25 10:49:44;;;;;;;37.88;13.32;;;5.00;99.90;;;;;;5091323;28;20043;-62
2022/01/25 10:52:09;;;;;;;33.20;13.55;;;5.00;99.90;;;;;;5091624;28;20032;-61
2022/01/25 10:54:40;;;;;;;41.88;14.70;;;5.00;99.90;;;;;;5091763;28;20024;-61
2022/01/25 10:57:25;;;;;;;44.00;15.73;;;5.00;99.90;;;;;;5090702;28;20028;-62
2022/01/25 10:59:59;;;;;;;41.47;15.98;;;5.00;99.90;;;;;;5091962;28;20090;-61
2022/01/25 11:02:25;;;;;;;43.80;15.18;;;5.00;99.90;;;;;;5090345;28;20042;-62
2022/01/25 11:04:52;;;;;;;38.38;15.57;;;5.00;99.90;;;;;;5089825;28;20020;-61
2022/01/25 11:07:18;;;;;;;40.17;16.33;;;5.00;99.90;;;;;;5090483;28;20028;-61
2022/01/25 11:09:47;;;;;;;34.08;11.90;;;5.00;99.90;;;;;;5091327;28;20510;-62
2022/01/25 11:12:19;;;;;;;42.95;13.75;;;5.00;99.90;;;;;;5090731;28;20463;-60
2022/01/25 11:14:56;;;;;;;42.13;14.75;;;5.00;99.90;;;;;;5091896;28;20020;-61
2022/01/25 11:17:25;;;;;;;41.67;14.50;;;5.00;99.90;;;;;;5090888;28;20101;-60
2022/01/25 11:19:51;;;;;;;41.97;14.45;;;5.00;99.90;;;;;;5091256;28;20081;-61
2022/01/25 11:22:19;;;;;;;36.17;12.85;;;5.00;99.90;;;;;;5091249;28;20024;-63
2022/01/25 11:24:58;;;;;;;;;;;5.00;99.90;;;;;;5091433;28;20454;-62
2022/01/25 11:27:26;;;;;;;45.10;13.80;;;5.00;99.90;;;;;;5090766;28;19916;-62
2022/01/25 11:29:55;;;;;;;40.15;15.82;;;5.10;99.90;;;;;;5091397;28;20475;-61
2022/01/25 11:32:25;;;;;;;42.55;14.98;;;5.10;99.90;;;;;;5090264;28;20041;-61
2022/01/25 11:34:52;;;;;;;43.53;13.98;;;5.10;99.90;;;;;;5091613;28;20494;-62
2022/01/25 11:37:18;;;;;;;45.33;15.30;;;5.10;99.90;;;;;;5090908;28;20031;-61
2022/01/25 11:39:51;;;;;;;40.53;13.73;;;5.00;99.90;;;;;;5090766;28;20032;-62
2022/01/25 11:42:23;;;;;;;36.80;16.58;;;5.10;99.90;;;;;;5090408;28;20111;-62
2022/01/25 11:44:50;;;;;;;52.10;17.50;;;5.10;99.90;;;;;;5090967;28;20032;-61
2022/01/25 11:47:18;;;;;;;45.17;15.38;;;5.10;99.90;;;;;;5090482;28;20024;-61
2022/01/25 11:49:55;;;;;;;36.80;13.38;;;5.10;99.90;;;;;;5091339;28;20031;-61
2022/01/25 11:52:24;;;;;;;43.25;16.10;;;5.10;99.90;;;;;;5091060;28;20032;-62
2022/01/25 11:55:10;;;;;;;36.97;13.43;;;5.10;99.90;;;;;;5090836;28;20030;-61
2022/01/25 11:57:56;;;;;;;42.28;17.00;;;5.10;99.90;;;;;;5091143;28;20031;-62
2022/01/25 12:00:40;;;;;;;49.95;15.77;;;5.10;99.90;;;;;;5089993;28;20126;-61
2022/01/25 12:03:24;;;;;;;38.17;13.32;;;5.20;99.90;;;;;;5091060;28;20028;-63
2022/01/25 12:06:22;;;;;;;39.47;14.25;;;5.10;99.90;;;;;;5091326;28;20020;-62
2022/01/25 12:09:07;;;;;;;41.10;12.90;;;5.20;99.90;;;;;;5090129;28;20115;-61
2022/01/25 12:11:51;;;;;;;42.17;14.23;;;5.20;99.90;;;;;;5089774;28;20424;-60
2022/01/25 12:14:46;;;;;;;39.28;14.05;;;5.10;99.90;;;;;;5093116;28;20020;-62
2022/01/25 12:17:23;;;;;;;37.75;12.95;;;5.10;99.90;;;;;;5094693;28;20090;-61
2022/01/25 12:19:57;;;;;;;44.27;14.63;;;5.10;99.90;;;;;;5094888;28;20032;-61
2022/01/25 12:22:37;;;;;;;46.22;14.20;;;5.10;99.90;;;;;;5093184;28;20064;-61
2022/01/25 12:25:38;;;;;;;35.10;13.25;;;5.10;99.90;;;;;;5094552;28;20118;-61
2022/01/25 12:28:09;;;;;;;44.33;15.05;;;5.10;99.90;;;;;;5093890;28;20047;-61
2022/01/25 12:30:44;;;;;;;44.40;16.98;;;5.10;99.90;;;;;;5094112;28;20115;-61
2022/01/25 12:33:24;;;;;;;43.17;12.98;;;5.10;99.90;;;;;;5074139;28;20043;-62
2022/01/25 12:35:54;;;;;;;32.40;12.55;;;5.10;99.90;;;;;;5073705;28;20016;-61
2022/01/25 12:38:37;;;;;;;39.95;13.88;;;5.10;99.90;;;;;;5074003;28;20027;-62
2022/01/25 12:41:21;;;;;;;43.22;15.13;;;5.10;99.90;;;;;;5077757;28;20104;-62
2022/01/25 12:43:53;;;;;;;44.78;15.57;;;5.00;99.90;;;;;;5093515;28;20031;-62
2022/01/25 12:46:48;;;;;;;39.08;13.07;;;5.00;99.90;;;;;;5094079;28;20035;-61
2022/01/25 12:49:17;;;;;;;40.30;14.38;;;5.10;99.90;;;;;;5071238;28;20052;-61
2022/01/25 12:51:46;;;;;;;44.42;14.27;;;5.00;99.90;;;;;;5093644;28;20025;-62
2022/01/25 12:54:12;;;;;;;;;;;5.10;99.90;;;;;;5093918;28;20495;-61
2022/01/25 12:56:43;;;;;;;52.88;15.43;;;5.00;99.90;;;;;;5092862;28;20347;-60
2022/01/25 12:59:18;;;;;;;41.70;14.70;;;5.10;99.90;;;;;;5093893;28;20024;-61
2022/01/25 13:01:44;;;;;;;37.90;13.88;;;5.00;99.90;;;;;;5093973;28;20040;-61
2022/01/25 13:04:11;;;;;;;50.30;16.23;;;5.00;99.90;;;;;;5092887;28;20020;-61
2022/01/25 13:06:39;;;;;;;46.20;13.18;;;5.10;99.90;;;;;;5093085;28;20028;-61
2022/01/25 13:09:12;;;;;;;46.10;14.40;;;5.00;99.90;;;;;;5073451;28;20032;-61
2022/01/25 13:14:44;;;;;;;43.42;14.20;;;5.10;99.90;;;;;;5093530;28;20475;-62
2022/01/25 13:17:12;;;;;;;42.22;15.45;;;5.10;99.90;;;;;;5086777;28;20081;-60
2022/01/25 13:19:48;;;;;;;44.65;14.70;;;5.10;99.90;;;;;;5073275;28;20060;-61
2022/01/25 13:22:20;;;;;;;46.97;13.50;;;5.00;99.90;;;;;;5073304;28;20029;-61
2022/01/25 13:27:45;;;;;;;44.60;15.18;;;5.00;99.90;;;;;;5072864;28;20049;-61
2022/01/25 13:32:57;;;;;;;45.20;13.50;;;5.00;99.90;;;;;;5092889;28;20581;-61
2022/01/25 13:35:29;;;;;;;42.70;16.52;;;5.00;99.90;;;;;;5093115;28;20320;-61
2022/01/25 13:38:17;;;;;;;41.28;13.55;;;5.00;99.90;;;;;;5092707;28;20024;-61
2022/01/25 13:46:36;;;;;;;41.15;13.65;;;5.00;99.90;;;;;;5092243;28;20119;-61
2022/01/25 13:49:04;;;;;;;38.65;12.85;;;5.00;99.90;;;;;;5093122;28;20024;-61
2022/01/25 13:51:37;;;;;;;42.53;14.93;;;5.00;99.90;;;;;;5092745;28;20024;-61
2022/01/25 13:54:03;;;;;;;37.90;13.50;;;5.00;99.90;;;;;;5091727;28;20021;-62
2022/01/25 13:56:31;;;;;;;42.50;15.20;;;5.00;99.90;;;;;;5092485;28;20416;-61
2022/01/25 13:58:58;;;;;;;36.67;14.43;;;5.00;99.90;;;;;;5089514;28;20070;-61
2022/01/25 14:01:27;;;;;;;37.28;13.52;;;5.00;99.90;;;;;;5071883;28;20115;-62
2022/01/25 14:04:02;;;;;;;47.80;16.27;;;5.00;99.90;;;;;;5087429;28;20032;-62
2022/01/25 14:06:42;;;;;;;34.03;14.68;;;5.10;99.90;;;;;;5077536;28;20103;-61
2022/01/25 14:09:15;;;;;;;38.50;13.07;;;5.10;99.90;;;;;;5083906;28;20017;-61
2022/01/25 14:25:43;;;;;;;45.30;13.45;;;5.00;99.90;;;;;;5031126;28;20039;-60
2022/01/25 14:28:17;;;;;;;42.70;12.02;;;5.00;99.90;;;;;;5086679;28;20044;-60
2022/01/25 14:30:54;;;;;;;49.22;16.17;;;5.00;99.90;;;;;;5091463;28;20028;-62
2022/01/25 14:33:27;;;;;;;34.35;12.90;;;5.00;99.90;;;;;;5091232;28;20050;-61
2022/01/25 14:36:00;;;;;;;37.63;12.77;;;5.00;99.90;;;;;;5090689;28;20055;-61
2022/01/25 14:38:27;;;;;;;32.50;12.00;;;5.00;99.90;;;;;;5091366;28;20494;-61
2022/01/25 14:40:55;;;;;;;41.13;14.35;;;5.00;99.90;;;;;;5091251;28;20064;-62
2022/01/25 14:43:30;;;;;;;38.50;14.48;;;5.00;99.90;;;;;;5089940;28;20020;-61
2022/01/25 14:46:03;;;;;;;36.90;13.25;;;5.00;99.90;;;;;;5091002;28;20067;-62
2022/01/25 14:48:33;;;;;;;44.72;15.57;;;5.00;99.90;;;;;;5081623;28;20029;-61
2022/01/25 14:50:59;;;;;;;36.90;12.32;;;4.90;99.90;;;;;;5079666;28;20024;-61
2022/01/25 14:53:25;;;;;;;38.47;12.50;;;4.90;99.90;;;;;;5071824;28;20032;-61
2022/01/25 14:55:52;;;;;;;36.00;13.60;;;4.90;99.90;;;;;;5072197;28;20436;-61
2022/01/25 15:00:52;;;;;;;42.45;13.88;;;4.90;99.90;;;;;;5073951;28;20407;-61
2022/01/25 15:03:18;;;;;;;47.97;14.50;;;4.80;99.90;;;;;;5077724;28;20017;-62
2022/01/25 15:05:45;;;;;;;40.70;12.52;;;4.80;99.90;;;;;;5071431;28;20053;-61